createdAt,value
2017-12-05T00:02:21.977Z,13.18
2017-12-05T00:04:49.587Z,13.25
2017-12-05T00:07:17.202Z,14.00
2017-12-05T00:09:44.850Z,13.75
2017-12-05T00:12:12.500Z,11.80
2017-12-05T00:14:40.111Z,14.52
2017-12-05T00:17:07.797Z,13.80
2017-12-05T00:19:36.168Z,13.38
2017-12-05T00:22:04.551Z,14.73
2017-12-05T00:24:33.423Z,12.43
2017-12-05T00:27:01.052Z,14.52
2017-12-05T00:29:28.723Z,15.70
2017-12-05T00:31:56.761Z,15.20
2017-12-05T00:34:24.431Z,16.55
2017-12-05T00:36:52.065Z,16.73
2017-12-05T00:39:19.668Z,17.12
2017-12-05T00:41:47.836Z,15.88
2017-12-05T00:44:15.491Z,16.60
2017-12-05T00:46:43.163Z,18.23
2017-12-05T00:49:10.818Z,17.55
2017-12-05T00:51:38.408Z,17.08
2017-12-05T00:54:06.085Z,17.60
2017-12-05T00:56:33.666Z,16.77
2017-12-05T00:59:02.027Z,18.83
2017-12-05T01:01:29.642Z,20.12
2017-12-05T01:03:57.303Z,17.15
2017-12-05T01:06:24.917Z,18.75
2017-12-05T01:08:53.285Z,19.08
2017-12-05T01:11:20.915Z,19.10
2017-12-05T01:13:48.541Z,17.55
2017-12-05T01:16:16.229Z,19.98
2017-12-05T01:18:43.862Z,19.20
2017-12-05T01:21:11.501Z,20.23
2017-12-05T01:23:39.168Z,18.80
2017-12-05T01:26:06.788Z,19.48
2017-12-05T01:28:34.404Z,23.10
2017-12-05T01:31:02.891Z,24.63
2017-12-05T01:33:30.568Z,22.80
2017-12-05T01:35:58.232Z,24.12
2017-12-05T01:38:25.844Z,27.02
2017-12-05T01:40:53.465Z,23.25
2017-12-05T01:43:21.121Z,24.65
2017-12-05T01:45:48.781Z,25.90
2017-12-05T01:48:16.428Z,23.42
2017-12-05T01:50:44.178Z,26.83
2017-12-05T01:53:11.808Z,23.87
2017-12-05T01:55:39.598Z,28.23
2017-12-05T01:58:08.152Z,27.08
2017-12-05T02:00:42.083Z,26.17
2017-12-05T02:03:10.500Z,25.70
2017-12-05T02:05:38.093Z,27.02
2017-12-05T02:08:05.938Z,25.92
2017-12-05T02:10:33.546Z,25.27
2017-12-05T02:13:01.226Z,29.75
2017-12-05T02:15:28.946Z,23.85
2017-12-05T02:17:57.651Z,28.08
2017-12-05T02:20:25.266Z,26.10
2017-12-05T02:22:52.886Z,27.65
2017-12-05T02:25:21.249Z,27.05
2017-12-05T02:27:49.653Z,26.23
2017-12-05T02:30:17.996Z,26.83
2017-12-05T02:32:46.733Z,27.45
2017-12-05T02:35:14.445Z,28.05
2017-12-05T02:37:42.058Z,28.95
2017-12-05T02:40:09.690Z,27.52
2017-12-05T02:42:38.090Z,25.55
2017-12-05T02:45:05.744Z,26.10
2017-12-05T02:47:34.106Z,25.80
2017-12-05T02:50:02.548Z,26.50
2017-12-05T02:52:30.145Z,25.25
2017-12-05T02:54:57.859Z,23.40
2017-12-05T02:57:25.612Z,25.17
2017-12-05T02:59:53.221Z,25.60
2017-12-05T03:02:20.908Z,24.90
2017-12-05T03:04:49.262Z,24.12
2017-12-05T03:07:17.023Z,26.10
2017-12-05T03:09:44.694Z,24.25
2017-12-05T03:12:12.381Z,25.23
2017-12-05T03:14:40.006Z,23.55
2017-12-05T03:17:07.672Z,25.95
2017-12-05T03:19:35.264Z,25.10
2017-12-05T03:22:02.889Z,24.17
2017-12-05T03:24:30.510Z,24.42
2017-12-05T03:26:58.101Z,24.30
2017-12-05T03:29:25.750Z,24.50
2017-12-05T03:31:53.370Z,20.67
2017-12-05T03:34:21.714Z,24.12
2017-12-05T03:36:49.304Z,26.12
2017-12-05T03:39:17.673Z,24.02
2017-12-05T03:41:45.311Z,26.10
2017-12-05T03:44:12.891Z,24.02
2017-12-05T03:46:41.278Z,24.87
2017-12-05T03:49:09.828Z,28.30
2017-12-05T03:51:37.492Z,27.13
2017-12-05T03:54:05.133Z,27.52
2017-12-05T03:56:32.722Z,27.37
2017-12-05T03:59:00.325Z,29.70
2017-12-05T04:01:27.960Z,31.65
2017-12-05T04:03:55.544Z,34.83
2017-12-05T04:06:23.180Z,34.08
2017-12-05T04:08:50.770Z,34.30
2017-12-05T04:11:18.402Z,33.50
2017-12-05T04:13:46.009Z,32.88
2017-12-05T04:16:13.646Z,35.10
2017-12-05T04:18:41.746Z,35.90
2017-12-05T04:21:09.407Z,35.65
2017-12-05T04:23:37.030Z,37.08
2017-12-05T04:26:05.369Z,36.35
2017-12-05T04:28:32.957Z,39.13
2017-12-05T04:31:01.307Z,34.05
2017-12-05T04:33:28.981Z,35.08
2017-12-05T04:35:56.601Z,34.03
2017-12-05T04:38:24.267Z,36.75
2017-12-05T04:40:51.876Z,35.83
2017-12-05T04:43:19.541Z,38.55
2017-12-05T04:45:47.149Z,37.95
2017-12-05T04:48:14.803Z,42.10
2017-12-05T04:50:42.460Z,40.20
2017-12-05T04:53:10.079Z,40.22
2017-12-05T04:55:37.713Z,39.60
2017-12-05T04:58:05.402Z,39.92
2017-12-05T05:00:33.086Z,38.88
2017-12-05T05:03:01.440Z,37.47
2017-12-05T05:05:29.069Z,36.55
2017-12-05T05:07:56.687Z,38.85
2017-12-05T05:10:24.413Z,38.17
2017-12-05T05:12:52.049Z,39.97
2017-12-05T05:15:19.671Z,40.75
2017-12-05T05:17:47.387Z,38.20
2017-12-05T05:20:15.023Z,41.05
2017-12-05T05:22:42.618Z,43.95
2017-12-05T05:25:10.257Z,41.80
2017-12-05T05:27:37.917Z,37.65
2017-12-05T05:30:05.555Z,41.75
2017-12-05T05:32:33.212Z,41.95
2017-12-05T05:35:00.877Z,37.95
2017-12-05T05:37:28.581Z,43.05
2017-12-05T05:39:56.234Z,43.80
2017-12-05T05:42:23.840Z,41.60
2017-12-05T05:44:52.253Z,42.22
2017-12-05T05:47:19.912Z,41.42
2017-12-05T05:49:47.509Z,39.58
2017-12-05T05:52:15.116Z,41.58
2017-12-05T05:54:43.532Z,43.95
2017-12-05T05:57:11.105Z,40.55
2017-12-05T05:59:38.724Z,43.95
2017-12-05T06:02:07.085Z,41.75
2017-12-05T06:04:35.437Z,41.78
2017-12-05T06:07:03.063Z,42.00
2017-12-05T06:09:30.663Z,41.08
2017-12-05T06:11:58.287Z,43.35
2017-12-05T06:14:26.181Z,44.78
2017-12-05T06:16:53.851Z,41.20
2017-12-05T06:19:21.502Z,45.28
2017-12-05T06:21:49.115Z,40.08
2017-12-05T06:24:16.721Z,43.25
2017-12-05T06:26:44.396Z,43.53
2017-12-05T06:29:12.254Z,34.10
2017-12-05T06:31:39.894Z,41.70
2017-12-05T06:34:07.519Z,41.47
2017-12-05T06:36:36.058Z,42.85
2017-12-05T06:39:03.734Z,41.60
2017-12-05T06:41:31.359Z,42.88
2017-12-05T06:43:58.981Z,42.60
2017-12-05T06:46:27.444Z,43.97
2017-12-05T06:48:55.084Z,43.95
2017-12-05T06:51:22.747Z,43.13
2017-12-05T06:53:50.367Z,42.40
2017-12-05T06:56:18.069Z,42.88
2017-12-05T06:58:45.675Z,44.05
2017-12-05T07:01:14.115Z,39.30
2017-12-05T07:03:41.715Z,40.47
2017-12-05T07:06:10.621Z,43.97
2017-12-05T07:08:38.327Z,42.92
2017-12-05T07:11:06.007Z,44.75
2017-12-05T07:13:34.451Z,42.47
2017-12-05T07:16:02.835Z,38.47
2017-12-05T07:18:30.499Z,41.25
2017-12-05T07:20:58.136Z,39.38
2017-12-05T07:23:25.737Z,42.70
2017-12-05T07:25:53.402Z,41.95
2017-12-05T07:28:21.078Z,42.65
2017-12-05T07:30:49.607Z,44.50
2017-12-05T07:33:17.329Z,39.88
2017-12-05T07:35:44.956Z,43.90
2017-12-05T07:38:12.822Z,42.42
2017-12-05T07:40:41.205Z,45.08
2017-12-05T07:43:08.893Z,42.05
2017-12-05T07:45:36.556Z,45.60
2017-12-05T07:48:04.213Z,44.80
2017-12-05T07:50:31.865Z,44.58
2017-12-05T07:52:59.512Z,47.58
2017-12-05T07:55:27.139Z,45.88
2017-12-05T07:57:54.854Z,45.65
2017-12-05T08:00:23.232Z,43.00
2017-12-05T08:02:50.996Z,45.35
2017-12-05T08:05:18.652Z,42.75
2017-12-05T08:07:46.385Z,42.55
2017-12-05T08:10:14.028Z,39.72
2017-12-05T08:12:41.867Z,44.65
2017-12-05T08:15:09.527Z,40.40
2017-12-05T08:17:37.385Z,40.80
2017-12-05T08:20:05.201Z,42.40
2017-12-05T08:22:32.964Z,40.78
2017-12-05T08:25:00.664Z,39.88
2017-12-05T08:27:28.328Z,39.80
2017-12-05T08:29:56.023Z,40.65
2017-12-05T08:32:23.655Z,42.22
2017-12-05T08:34:51.300Z,41.00
2017-12-05T08:37:19.070Z,41.80
2017-12-05T08:39:46.752Z,38.38
2017-12-05T08:42:14.632Z,38.65
2017-12-05T08:44:43.030Z,37.55
2017-12-05T08:47:11.502Z,37.70
2017-12-05T08:49:39.993Z,37.42
2017-12-05T08:52:08.478Z,43.85
2017-12-05T08:54:36.906Z,41.22
2017-12-05T08:57:04.598Z,40.15
2017-12-05T08:59:32.287Z,39.33
2017-12-05T09:01:59.951Z,38.67
2017-12-05T09:04:27.627Z,40.22
2017-12-05T09:06:55.195Z,40.83
2017-12-05T09:09:22.812Z,40.20
2017-12-05T09:11:50.514Z,40.97
2017-12-05T09:14:18.112Z,38.55
2017-12-05T09:16:46.635Z,41.92
2017-12-05T09:19:14.251Z,39.65
2017-12-05T09:21:41.935Z,41.33
2017-12-05T09:24:10.592Z,39.42
2017-12-05T09:26:38.215Z,38.55
2017-12-05T09:29:05.917Z,41.20
2017-12-05T09:31:33.620Z,36.28
2017-12-05T09:34:02.062Z,37.80
2017-12-05T09:36:29.707Z,42.22
2017-12-05T09:38:57.506Z,33.72
2017-12-05T09:41:26.084Z,37.53
2017-12-05T09:43:53.829Z,38.40
2017-12-05T09:46:21.416Z,39.17
2017-12-05T09:48:49.906Z,38.83
2017-12-05T09:51:17.565Z,33.13
2017-12-05T09:53:45.238Z,37.83
2017-12-05T09:56:12.922Z,39.03
2017-12-05T09:58:40.838Z,35.85
2017-12-05T10:01:08.500Z,38.70
2017-12-05T10:03:36.114Z,36.47
2017-12-05T10:06:03.792Z,37.35
2017-12-05T10:08:31.386Z,38.33
2017-12-05T10:10:59.048Z,32.08
2017-12-05T10:13:26.674Z,35.38
2017-12-05T10:15:54.303Z,34.63
2017-12-05T10:18:23.557Z,37.05
2017-12-05T10:20:51.318Z,36.13
2017-12-05T10:23:19.725Z,35.35
2017-12-05T10:25:47.334Z,35.10
2017-12-05T10:28:14.955Z,36.17
2017-12-05T10:30:43.990Z,34.22
2017-12-05T10:33:11.669Z,34.00
2017-12-05T10:35:39.333Z,34.42
2017-12-05T10:38:06.955Z,29.20
2017-12-05T10:40:34.845Z,35.80
2017-12-05T10:43:02.501Z,35.60
2017-12-05T10:45:30.116Z,32.25
2017-12-05T10:47:57.737Z,31.65
2017-12-05T10:50:25.340Z,31.42
2017-12-05T10:52:52.965Z,31.95
2017-12-05T10:55:21.352Z,34.47
2017-12-05T10:57:49.085Z,30.75
2017-12-05T11:00:16.755Z,33.25
2017-12-05T11:02:45.257Z,21.35
2017-12-05T11:05:12.914Z,32.50
2017-12-05T11:07:40.610Z,32.42
2017-12-05T11:10:08.271Z,32.55
2017-12-05T11:12:36.060Z,32.50
2017-12-05T11:15:04.549Z,34.60
2017-12-05T11:17:32.253Z,31.77
2017-12-05T11:19:59.922Z,30.77
2017-12-05T11:22:27.800Z,33.33
2017-12-05T11:24:55.498Z,31.50
2017-12-05T11:27:23.162Z,35.00
2017-12-05T11:29:50.916Z,34.00
2017-12-05T11:32:18.537Z,31.20
2017-12-05T11:34:46.180Z,31.15
2017-12-05T11:37:14.533Z,31.23
2017-12-05T11:39:42.216Z,34.13
2017-12-05T11:42:10.486Z,31.37
2017-12-05T11:44:38.244Z,34.58
2017-12-05T11:47:05.938Z,33.70
2017-12-05T11:49:33.924Z,30.50
2017-12-05T11:52:01.619Z,31.15
2017-12-05T11:54:30.030Z,31.65
2017-12-05T11:56:57.716Z,29.75
2017-12-05T11:59:25.465Z,31.05
2017-12-05T12:01:53.144Z,32.95
2017-12-05T12:04:20.779Z,30.75
2017-12-05T12:06:48.399Z,31.35
2017-12-05T12:09:16.079Z,26.75
2017-12-05T12:11:43.739Z,29.27
2017-12-05T12:14:12.144Z,30.30
2017-12-05T12:16:39.801Z,27.55
2017-12-05T12:19:07.471Z,29.08
2017-12-05T12:21:35.659Z,26.33
2017-12-05T12:24:03.392Z,30.15
2017-12-05T12:26:31.129Z,28.40
2017-12-05T12:28:58.757Z,28.77
2017-12-05T12:31:26.497Z,23.20
2017-12-05T12:33:54.177Z,25.98
2017-12-05T12:36:21.825Z,24.27
2017-12-05T12:38:49.512Z,23.45
2017-12-05T12:41:17.280Z,23.80
2017-12-05T12:43:44.955Z,24.40
2017-12-05T12:46:12.647Z,24.85
2017-12-05T12:48:40.287Z,26.08
2017-12-05T12:51:08.054Z,21.15
2017-12-05T12:53:35.731Z,25.15
2017-12-05T12:56:04.248Z,21.37
2017-12-05T12:58:32.182Z,29.63
2017-12-05T13:00:59.885Z,24.55
2017-12-05T13:03:27.522Z,23.90
2017-12-05T13:05:55.203Z,22.05
2017-12-05T13:08:22.808Z,23.08
2017-12-05T13:10:50.402Z,23.35
2017-12-05T13:13:18.083Z,24.83
2017-12-05T13:15:45.828Z,22.02
2017-12-05T13:18:13.442Z,22.45
2017-12-05T13:20:41.083Z,20.20
2017-12-05T13:23:09.497Z,24.10
2017-12-05T13:25:37.193Z,22.65
2017-12-05T13:28:04.798Z,21.70
2017-12-05T13:30:33.299Z,22.83
2017-12-05T13:33:01.696Z,21.60
2017-12-05T13:35:30.046Z,25.77
2017-12-05T13:37:57.734Z,29.50
2017-12-05T13:40:25.453Z,22.65
2017-12-05T13:42:53.158Z,19.80
2017-12-05T13:45:20.875Z,19.15
2017-12-05T13:47:48.565Z,25.62
2017-12-05T13:50:16.279Z,20.17
2017-12-05T13:52:43.907Z,26.33
2017-12-05T13:55:12.362Z,22.52
2017-12-05T13:57:39.964Z,20.70
2017-12-05T14:00:08.480Z,18.95
2017-12-05T14:02:36.239Z,24.63
2017-12-05T14:05:03.987Z,20.70
2017-12-05T14:07:31.647Z,20.55
2017-12-05T14:09:59.263Z,20.65
2017-12-05T14:12:27.323Z,21.00
2017-12-05T14:14:55.026Z,20.83
2017-12-05T14:17:23.455Z,20.10
2017-12-05T14:19:51.176Z,20.80
2017-12-05T14:22:19.666Z,25.98
2017-12-05T14:24:47.374Z,21.92
2017-12-05T14:27:14.997Z,21.83
2017-12-05T14:29:42.616Z,21.37
2017-12-05T14:32:10.220Z,18.75
2017-12-05T14:34:37.911Z,20.10
2017-12-05T14:37:05.670Z,19.08
2017-12-05T14:39:33.331Z,20.70
2017-12-05T14:42:00.979Z,18.58
2017-12-05T14:44:28.735Z,21.12
2017-12-05T14:46:56.580Z,20.40
2017-12-05T14:49:25.034Z,23.05
2017-12-05T14:51:52.708Z,20.35
2017-12-05T14:54:20.355Z,17.33
2017-12-05T14:56:48.081Z,19.35
2017-12-05T14:59:15.726Z,21.92
2017-12-05T15:01:43.440Z,20.40
2017-12-05T15:04:11.120Z,19.27
2017-12-05T15:06:38.958Z,18.80
2017-12-05T15:09:06.559Z,20.25
2017-12-05T15:11:35.193Z,18.20
2017-12-05T15:14:02.979Z,20.05
2017-12-05T15:16:30.788Z,17.92
2017-12-05T15:18:58.447Z,19.37
2017-12-05T15:21:26.124Z,17.83
2017-12-05T15:23:53.853Z,19.55
2017-12-05T15:26:21.700Z,18.42
2017-12-05T15:28:50.113Z,19.30
2017-12-05T15:31:18.658Z,18.90
2017-12-05T15:33:46.342Z,16.40
2017-12-05T15:36:14.098Z,18.27
2017-12-05T15:38:41.714Z,20.20
2017-12-05T15:41:09.370Z,18.40
2017-12-05T15:43:37.128Z,18.42
2017-12-05T15:46:04.865Z,18.30
2017-12-05T15:48:32.601Z,19.67
2017-12-05T15:51:00.270Z,19.37
2017-12-05T15:53:28.028Z,18.30
2017-12-05T15:55:56.539Z,17.20
2017-12-05T15:58:24.205Z,18.05
2017-12-05T16:00:52.071Z,18.05
2017-12-05T16:03:19.753Z,19.45
2017-12-05T16:05:48.202Z,19.05
2017-12-05T16:08:15.944Z,18.90
2017-12-05T16:10:47.301Z,17.98
2017-12-05T16:13:16.044Z,17.95
2017-12-05T16:15:43.645Z,16.60
2017-12-05T16:18:12.099Z,18.33
2017-12-05T16:20:39.690Z,17.50
2017-12-05T16:23:07.704Z,14.15
2017-12-05T16:25:35.295Z,19.52
2017-12-05T16:28:02.985Z,18.80
2017-12-05T16:30:30.621Z,19.85
2017-12-05T16:32:58.297Z,20.52
2017-12-05T16:35:26.687Z,19.20
2017-12-05T16:37:54.360Z,16.77
2017-12-05T16:40:22.004Z,17.17
2017-12-05T16:42:49.704Z,18.02
2017-12-05T16:45:17.344Z,19.02
2017-12-05T16:47:45.029Z,18.62
2017-12-05T16:50:12.655Z,18.42
2017-12-05T16:52:40.398Z,18.87
2017-12-05T16:55:07.985Z,19.00
2017-12-05T16:57:35.648Z,17.73
2017-12-05T17:00:03.314Z,18.48
2017-12-05T17:02:31.030Z,18.45
2017-12-05T17:04:58.716Z,17.65
2017-12-05T17:07:27.154Z,17.17
2017-12-05T17:09:54.831Z,18.98
2017-12-05T17:12:22.669Z,18.00
2017-12-05T17:14:50.292Z,17.90
2017-12-05T17:17:19.784Z,18.60
2017-12-05T17:19:51.088Z,18.95
2017-12-05T17:22:18.861Z,17.48
2017-12-05T17:24:46.525Z,19.90
2017-12-05T17:27:14.226Z,20.52
2017-12-05T17:29:41.888Z,17.10
2017-12-05T17:32:09.512Z,17.05
2017-12-05T17:34:37.296Z,19.08
2017-12-05T17:37:05.859Z,17.52
2017-12-05T17:39:33.651Z,20.10
2017-12-05T17:42:01.331Z,17.27
2017-12-05T17:44:28.975Z,17.30
2017-12-05T17:46:56.705Z,17.23
2017-12-05T17:49:24.360Z,17.95
2017-12-05T17:51:52.232Z,18.02
2017-12-05T17:54:19.934Z,18.98
2017-12-05T17:56:47.689Z,19.52
2017-12-05T17:59:16.259Z,19.40
2017-12-05T18:01:44.482Z,18.33
2017-12-05T18:04:12.248Z,18.33
2017-12-05T18:06:39.930Z,18.12
2017-12-05T18:09:07.538Z,17.80
2017-12-05T18:11:35.219Z,15.88
2017-12-05T18:14:02.914Z,18.90
2017-12-05T18:16:30.630Z,18.08
2017-12-05T18:18:58.565Z,16.70
2017-12-05T18:21:26.338Z,17.52
2017-12-05T18:23:54.221Z,17.85
2017-12-05T18:26:22.703Z,20.50
2017-12-05T18:28:50.324Z,18.42
2017-12-05T18:31:18.023Z,16.40
2017-12-05T18:33:45.713Z,19.00
2017-12-05T18:36:13.415Z,19.58
2017-12-05T18:38:41.116Z,18.42
2017-12-05T18:41:08.782Z,16.02
2017-12-05T18:43:36.431Z,18.37
2017-12-05T18:46:04.105Z,19.25
2017-12-05T18:48:31.829Z,17.85
2017-12-05T18:50:59.455Z,31.67
2017-12-05T18:53:27.137Z,22.58
2017-12-05T18:55:55.758Z,19.85
2017-12-05T18:58:23.459Z,30.25
2017-12-05T19:00:51.106Z,20.45
2017-12-05T19:03:18.853Z,39.35
2017-12-05T19:05:46.486Z,26.58
2017-12-05T19:08:15.573Z,19.25
2017-12-05T19:10:43.289Z,40.80
2017-12-05T19:13:11.031Z,33.05
2017-12-05T19:15:38.923Z,18.52
2017-12-05T19:18:06.590Z,20.70
2017-12-05T19:20:34.336Z,18.12
2017-12-05T19:23:02.010Z,19.17
2017-12-05T19:25:30.430Z,16.05
2017-12-05T19:27:58.161Z,18.23
2017-12-05T19:30:26.619Z,16.75
2017-12-05T19:32:54.302Z,14.55
2017-12-05T19:35:22.776Z,16.92
2017-12-05T19:37:50.480Z,18.00
2017-12-05T19:40:18.203Z,17.20
2017-12-05T19:42:45.909Z,17.23
2017-12-05T19:45:13.668Z,18.25
2017-12-05T19:47:41.290Z,17.15
2017-12-05T19:50:08.923Z,17.65
2017-12-05T19:52:36.597Z,18.73
2017-12-05T19:55:04.273Z,16.62
2017-12-05T19:57:31.994Z,16.42
2017-12-05T19:59:59.770Z,17.20
2017-12-05T20:02:27.393Z,18.55
2017-12-05T20:04:55.018Z,18.45
2017-12-05T20:07:22.775Z,16.27
2017-12-05T20:09:50.500Z,14.98
2017-12-05T20:12:18.117Z,15.38
2017-12-05T20:14:46.024Z,16.73
2017-12-05T20:17:13.896Z,16.50
2017-12-05T20:19:41.585Z,16.35
2017-12-05T20:22:09.499Z,15.57
2017-12-05T20:24:37.348Z,15.70
2017-12-05T20:27:05.066Z,17.50
2017-12-05T20:29:32.813Z,17.85
2017-12-05T20:32:00.529Z,17.40
2017-12-05T20:34:28.213Z,15.43
2017-12-05T20:36:55.922Z,16.65
2017-12-05T20:39:23.795Z,15.15
2017-12-05T20:41:51.574Z,15.50
2017-12-05T20:44:19.267Z,16.00
2017-12-05T20:46:47.856Z,14.77
2017-12-05T20:49:15.506Z,16.10
2017-12-05T20:51:43.356Z,16.12
2017-12-05T20:54:11.066Z,17.67
2017-12-05T20:56:38.694Z,14.20
2017-12-05T20:59:06.640Z,14.52
2017-12-05T21:01:34.222Z,16.75
2017-12-05T21:04:01.946Z,15.73
2017-12-05T21:06:29.647Z,15.32
2017-12-05T21:08:57.361Z,15.00
2017-12-05T21:11:25.084Z,15.20
2017-12-05T21:13:52.825Z,13.98
2017-12-05T21:16:20.460Z,13.70
2017-12-05T21:18:48.998Z,14.52
2017-12-05T21:21:17.439Z,14.38
2017-12-05T21:23:45.083Z,11.05
2017-12-05T21:26:12.734Z,15.38
2017-12-05T21:28:40.498Z,14.73
2017-12-05T21:31:08.107Z,14.40
2017-12-05T21:33:36.612Z,14.50
2017-12-05T21:36:05.004Z,14.38
2017-12-05T21:38:32.623Z,13.15
2017-12-05T21:41:01.076Z,13.90
2017-12-05T21:43:28.704Z,14.35
2017-12-05T21:45:57.102Z,12.48
2017-12-05T21:48:24.756Z,12.90
2017-12-05T21:50:52.422Z,14.35
2017-12-05T21:53:20.087Z,14.55
2017-12-05T21:55:47.725Z,14.07
2017-12-05T21:58:15.425Z,14.50
2017-12-05T22:00:43.106Z,13.35
2017-12-05T22:03:10.842Z,14.82
2017-12-05T22:05:38.467Z,11.95
2017-12-05T22:08:06.099Z,12.75
2017-12-05T22:10:33.778Z,12.68
2017-12-05T22:13:01.430Z,13.07
2017-12-05T22:15:29.099Z,14.07
2017-12-05T22:17:56.833Z,13.38
2017-12-05T22:20:25.212Z,12.88
2017-12-05T22:22:53.710Z,12.00
2017-12-05T22:25:21.385Z,13.23
2017-12-05T22:27:49.048Z,13.52
2017-12-05T22:30:16.682Z,11.68
2017-12-05T22:32:44.280Z,13.35
2017-12-05T22:35:11.958Z,12.52
2017-12-05T22:37:39.623Z,14.27
2017-12-05T22:40:07.429Z,12.00
2017-12-05T22:42:35.144Z,13.57
2017-12-05T22:45:02.946Z,13.93
2017-12-05T22:47:30.577Z,12.07
2017-12-05T22:49:58.248Z,13.43
2017-12-05T22:52:25.993Z,12.85
2017-12-05T22:54:53.589Z,13.60
2017-12-05T22:57:21.195Z,12.88
2017-12-05T22:59:48.847Z,14.45
2017-12-05T23:02:16.493Z,12.57
2017-12-05T23:04:45.367Z,13.40
2017-12-05T23:07:13.793Z,13.23
2017-12-05T23:09:41.451Z,13.15
2017-12-05T23:12:09.069Z,13.80
2017-12-05T23:14:36.727Z,14.68
2017-12-05T23:17:05.206Z,14.20
2017-12-05T23:19:32.865Z,13.32
2017-12-05T23:22:00.509Z,13.15
2017-12-05T23:24:28.117Z,14.32
2017-12-05T23:26:55.785Z,12.85
2017-12-05T23:29:23.433Z,13.52
2017-12-05T23:31:51.816Z,13.90
2017-12-05T23:34:20.217Z,13.60
2017-12-05T23:36:47.881Z,14.45
2017-12-05T23:39:15.524Z,14.63
2017-12-05T23:41:43.212Z,14.52
2017-12-05T23:44:10.831Z,15.35
2017-12-05T23:46:38.457Z,13.62
2017-12-05T23:49:06.056Z,14.23
2017-12-05T23:51:33.750Z,14.27
2017-12-05T23:54:01.398Z,14.80
2017-12-05T23:56:29.747Z,12.77
2017-12-05T23:58:57.396Z,14.75
